^^
Station Historical Data
 
Daily Summary for March 23, 2017 Units:  English    Metric   Both
« Previous Day
Next Day »
Daily Weekly Monthly Yearly Custom
  Current: High: Low: Average:
Temperature: 47.0 °F 52.3 °F 32.6 °F 43 °F
Dew Point: 40.2 °F 44.1 °F 31.1 °F 38.1 °F
Humidity: 77% 95% 62% 83%
Wind Speed: 15.0mph 28.0mph 0.0mph 4.3mph
Wind Gust: 20.0mph 29.0mph - -
WindEast - - SSW
Pressure: 29.80 in 30.06 in 29.80 in -
Precipitation: 0.00 in      
Historical Graphs
 
 
Tabular Data for March 23, 2017
Time Temperature Dew Point Pressure Wind Wind Speed Wind Gust Humidity Rainfall Rate (Hourly) solar Conditions
00:02 42.8 °F 39.5 °F 30.05 in Calm     88% 0.00 in 0.0 W/m2 RA
00:07 42.5 °F 39.2 °F 30.05 in Calm     88% 0.00 in 0.0 W/m2 RA
00:12 42.3 °F 39.0 °F 30.05 in Calm     88% 0.00 in 0.0 W/m2 CLR
00:17 42.0 °F 38.7 °F 30.05 in Calm     88% 0.00 in 0.0 W/m2 CLR
00:22 41.7 °F 38.7 °F 30.05 in Calm     89% 0.00 in 0.0 W/m2 CLR
00:27 41.5 °F 38.5 °F 30.06 in Calm     89% 0.00 in 0.0 W/m2 CLR
00:32 40.8 °F 37.8 °F 30.06 in Calm     89% 0.00 in 0.0 W/m2 CLR
00:37 40.4 °F 37.7 °F 30.06 in Calm     90% 0.00 in 0.0 W/m2 CLR
00:43 40.1 °F 37.4 °F 30.06 in Calm     90% 0.00 in 0.0 W/m2 CLR
00:48 40.0 °F 37.6 °F 30.06 in ESE 1.2 mph 1.2 mph 91% 0.00 in 0.0 W/m2 CLR
00:53 39.2 °F 36.5 °F 30.06 in Calm     90% 0.00 in 0.0 W/m2 CLR
00:58 38.8 °F 36.1 °F 30.06 in Calm     90% 0.00 in 0.0 W/m2 CLR
01:03 38.6 °F 36.2 °F 30.06 in Calm     91% 0.00 in 0.0 W/m2 CLR
01:08 38.3 °F 35.9 °F 30.06 in Calm     91% 0.00 in 0.0 W/m2 CLR
01:13 37.8 °F 35.4 °F 30.06 in Calm     91% 0.00 in 0.0 W/m2 CLR
01:15 37.7 °F 35.3 °F 30.06 in Calm     91% 0.00 in 0.0 W/m2 CLR
01:20 37.6 °F 35.5 °F 30.06 in Calm     92% 0.00 in 0.0 W/m2 CLR
01:25 37.5 °F 35.4 °F 30.06 in Calm     92% 0.00 in 0.0 W/m2 CLR
01:30 37.2 °F 35.1 °F 30.06 in Calm     92% 0.00 in 0.0 W/m2 CLR
01:36 37.0 °F 34.9 °F 30.06 in Calm     92% 0.00 in 0.0 W/m2 CLR
01:41 36.9 °F 34.8 °F 30.06 in Calm     92% 0.00 in 0.0 W/m2 CLR
01:46 36.6 °F 34.5 °F 30.05 in Calm     92% 0.00 in 0.0 W/m2 CLR
01:51 36.4 °F 34.3 °F 30.05 in Calm     92% 0.00 in 0.0 W/m2 CLR
01:56 36.3 °F 34.5 °F 30.04 in Calm     93% 0.00 in 0.0 W/m2 CLR
02:01 35.9 °F 33.8 °F 30.04 in Calm     92% 0.00 in 0.0 W/m2 CLR
02:06 35.6 °F 33.5 °F 30.04 in Calm     92% 0.00 in 0.0 W/m2 CLR
02:11 35.6 °F 33.8 °F 30.04 in Calm     93% 0.00 in 0.0 W/m2 CLR
02:16 35.4 °F 33.6 °F 30.04 in Calm     93% 0.00 in 0.0 W/m2 CLR
02:21 35.0 °F 33.2 °F 30.04 in Calm     93% 0.00 in 0.0 W/m2 CLR
02:26 34.8 °F 33.0 °F 30.04 in Calm     93% 0.00 in 0.0 W/m2 CLR
02:32 34.7 °F 32.9 °F 30.04 in Calm     93% 0.00 in 0.0 W/m2 CLR
02:37 35.0 °F 33.4 °F 30.04 in Calm     94% 0.00 in 0.0 W/m2 CLR
02:42 35.2 °F 33.6 °F 30.04 in Calm     94% 0.00 in 0.0 W/m2 CLR
02:47 35.3 °F 33.7 °F 30.04 in Calm     94% 0.00 in 0.0 W/m2 CLR
02:52 34.9 °F 33.1 °F 30.04 in Calm     93% 0.00 in 0.0 W/m2 CLR
02:57 34.6 °F 33.1 °F 30.04 in Calm     94% 0.00 in 0.0 W/m2 CLR
03:02 34.4 °F 32.6 °F 30.04 in Calm     93% 0.00 in 0.0 W/m2 CLR
03:07 34.2 °F 32.4 °F 30.04 in Calm     93% 0.00 in 0.0 W/m2 CLR
03:12 34.0 °F 32.5 °F 30.04 in Calm     94% 0.00 in 0.0 W/m2 CLR
03:17 34.1 °F 32.6 °F 30.03 in Calm     94% 0.00 in 0.0 W/m2 CLR
03:22 34.5 °F 33.0 °F 30.03 in Calm     94% 0.00 in 0.0 W/m2 CLR
03:27 34.6 °F 33.1 °F 30.04 in Calm     94% 0.00 in 0.0 W/m2 CLR
03:32 34.6 °F 33.1 °F 30.04 in Calm     94% 0.00 in 0.0 W/m2 CLR
03:38 34.4 °F 32.9 °F 30.04 in Calm     94% 0.00 in 0.0 W/m2 CLR
03:43 34.6 °F 33.1 °F 30.04 in Calm     94% 0.00 in 0.0 W/m2 CLR
03:48 34.7 °F 33.2 °F 30.04 in Calm     94% 0.00 in 0.0 W/m2 CLR
03:53 34.6 °F 33.1 °F 30.04 in Calm     94% 0.00 in 0.0 W/m2 CLR
03:58 34.5 °F 33.0 °F 30.04 in Calm     94% 0.00 in 0.0 W/m2 CLR
04:03 34.6 °F 33.1 °F 30.04 in Calm     94% 0.00 in 0.0 W/m2 CLR
04:08 34.6 °F 33.1 °F 30.04 in Calm     94% 0.00 in 0.0 W/m2 CLR
04:13 34.4 °F 32.9 °F 30.04 in Calm     94% 0.00 in 0.0 W/m2 CLR
04:18 34.0 °F 32.5 °F 30.05 in Calm     94% 0.00 in 0.0 W/m2 CLR
04:23 34.3 °F 33.0 °F 30.04 in Calm     95% 0.00 in 0.0 W/m2 CLR
04:28 34.4 °F 32.9 °F 30.04 in Calm     94% 0.00 in 0.0 W/m2 CLR
04:33 34.4 °F 32.9 °F 30.04 in Calm     94% 0.00 in 0.0 W/m2 CLR
04:38 34.2 °F 32.7 °F 30.04 in Calm     94% 0.00 in 0.0 W/m2 CLR
04:44 34.3 °F 33.0 °F 30.04 in Calm     95% 0.00 in 0.0 W/m2 CLR
04:49 34.5 °F 33.2 °F 30.04 in Calm     95% 0.00 in 0.0 W/m2 CLR
04:54 34.6 °F 33.3 °F 30.04 in Calm     95% 0.00 in 0.0 W/m2 CLR
04:59 34.7 °F 33.2 °F 30.05 in Calm     94% 0.00 in 0.0 W/m2 CLR
05:04 34.6 °F 33.1 °F 30.05 in Calm     94% 0.00 in 0.0 W/m2 CLR
05:09 34.0 °F 32.2 °F 30.05 in Calm     93% 0.00 in 0.0 W/m2 CLR
05:14 33.5 °F 31.7 °F 30.06 in Calm     93% 0.00 in 0.0 W/m2 CLR
05:19 33.7 °F 32.2 °F 30.06 in Calm     94% 0.00 in 0.0 W/m2 CLR
05:24 33.7 °F 32.2 °F 30.05 in Calm     94% 0.00 in 0.0 W/m2 CLR
05:29 33.5 °F 32.0 °F 30.05 in Calm     94% 0.00 in 0.0 W/m2 CLR
05:34 33.4 °F 31.9 °F 30.05 in Calm     94% 0.00 in 0.0 W/m2 CLR
05:39 33.2 °F 31.7 °F 30.05 in Calm     94% 0.00 in 0.0 W/m2 CLR
05:44 32.9 °F 31.4 °F 30.05 in Calm     94% 0.00 in 0.0 W/m2 CLR
05:49 32.6 °F 31.1 °F 30.05 in Calm     94% 0.00 in 0.0 W/m2 CLR
05:54 32.6 °F 31.1 °F 30.05 in Calm     94% 0.00 in 0.0 W/m2 CLR
05:59 32.8 °F 31.5 °F 30.05 in Calm     95% 0.00 in 0.0 W/m2 CLR
06:04 33.2 °F 31.9 °F 30.06 in Calm     95% 0.00 in 0.0 W/m2 CLR
06:09 33.1 °F 31.6 °F 30.06 in Calm     94% 0.00 in 0.0 W/m2 CLR
06:14 33.1 °F 31.8 °F 30.06 in Calm     95% 0.00 in 0.0 W/m2 CLR
06:19 33.3 °F 32.0 °F 30.06 in Calm     95% 0.00 in 0.0 W/m2 CLR
06:24 33.4 °F 32.1 °F 30.06 in Calm     95% 0.00 in 0.0 W/m2 CLR
06:29 34.0 °F 32.7 °F 30.06 in Calm     95% 0.00 in 0.0 W/m2 CLR
06:34 34.1 °F 32.8 °F 30.06 in Calm     95% 0.00 in 0.0 W/m2 CLR
06:39 34.6 °F 33.3 °F 30.06 in Calm     95% 0.00 in 0.0 W/m2 CLR
06:44 34.9 °F 33.6 °F 30.06 in Calm     95% 0.00 in 0.0 W/m2 CLR
06:49 34.9 °F 33.3 °F 30.05 in Calm     94% 0.00 in 0.0 W/m2 CLR
06:54 34.8 °F 33.2 °F 30.06 in Calm     94% 0.00 in 0.0 W/m2 CLR
06:59 34.8 °F 33.2 °F 30.06 in Calm     94% 0.00 in 0.0 W/m2 OVC
07:04 35.0 °F 33.4 °F 30.06 in Calm     94% 0.00 in 0.0 W/m2 OVC
07:09 35.1 °F 33.6 °F 30.06 in Calm     94% 0.00 in 0.0 W/m2 OVC
07:14 35.3 °F 33.7 °F 30.06 in Calm     94% 0.00 in 0.0 W/m2 OVC
07:19 35.5 °F 33.9 °F 30.06 in Calm     94% 0.00 in 9.0 W/m2 CLR
07:24 35.7 °F 34.1 °F 30.05 in Calm     94% 0.00 in 12.0 W/m2 CLR
07:29 36.1 °F 34.5 °F 30.05 in Calm     94% 0.00 in 14.0 W/m2 SCT
07:35 36.5 °F 34.9 °F 30.06 in Calm     94% 0.00 in 19.0 W/m2 SCT
07:39 36.6 °F 35.0 °F 30.05 in Calm     94% 0.00 in 23.0 W/m2 SCT
07:44 36.8 °F 35.2 °F 30.05 in Calm     94% 0.00 in 26.0 W/m2 SCT
07:49 36.9 °F 35.0 °F 30.05 in Calm   1.0 mph 93% 0.00 in 32.0 W/m2 SCT
07:54 37.1 °F 35.3 °F 30.05 in Calm     93% 0.00 in 37.0 W/m2 SCT
08:00 37.3 °F 35.2 °F 30.05 in Calm     92% 0.00 in 37.0 W/m2 BKN
08:04 37.3 °F 35.2 °F 30.05 in Calm     92% 0.00 in 44.0 W/m2 BKN
08:10 37.4 °F 35.0 °F 30.05 in Calm     91% 0.00 in 54.0 W/m2 BKN
08:15 37.6 °F 35.2 °F 30.05 in Calm     91% 0.00 in 67.0 W/m2 SCT
08:20 37.7 °F 35.3 °F 30.06 in Calm     91% 0.00 in 93.0 W/m2 SCT
08:22 37.7 °F 35.3 °F 30.06 in Calm   0.2 mph 91% 0.00 in 98.0 W/m2 FEW
08:27 37.9 °F 35.5 °F 30.05 in Calm     91% 0.00 in 135.0 W/m2 CLR
08:32 38.4 °F 36.0 °F 30.05 in Calm     91% 0.00 in 137.0 W/m2 CLR
08:37 39.1 °F 36.7 °F 30.05 in Calm     91% 0.00 in 116.0 W/m2 SCT
08:42 39.5 °F 36.8 °F 30.05 in Calm     90% 0.00 in 125.0 W/m2 SCT
08:47 39.9 °F 36.9 °F 30.05 in Calm     89% 0.00 in 132.0 W/m2 SCT
08:52 40.2 °F 37.2 °F 30.05 in Calm     89% 0.00 in 141.0 W/m2 SCT
08:57 40.4 °F 37.4 °F 30.05 in Calm     89% 0.00 in 149.0 W/m2 SCT
09:03 40.6 °F 37.3 °F 30.05 in Calm     88% 0.00 in 146.0 W/m2 SCT
09:08 40.7 °F 37.4 °F 30.05 in Calm     88% 0.00 in 128.0 W/m2 SCT
09:13 41.0 °F 37.7 °F 30.04 in Calm     88% 0.00 in 134.0 W/m2 SCT
09:18 41.3 °F 38.0 °F 30.05 in Calm     88% 0.00 in 137.0 W/m2 SCT
09:23 41.6 °F 38.3 °F 30.05 in Calm     88% 0.00 in 146.0 W/m2 SCT
09:28 41.9 °F 38.6 °F 30.05 in Calm     88% 0.00 in 156.0 W/m2 SCT
09:33 42.2 °F 38.9 °F 30.05 in Calm     88% 0.00 in 174.0 W/m2 SCT
09:38 42.5 °F 38.9 °F 30.05 in Calm     87% 0.00 in 202.0 W/m2 SCT
09:43 42.8 °F 38.9 °F 30.04 in Calm     86% 0.00 in 250.0 W/m2 FEW
09:48 43.1 °F 39.2 °F 30.04 in Calm     86% 0.00 in 221.0 W/m2 SCT
09:53 43.7 °F 39.5 °F 30.03 in Calm     85% 0.00 in 227.0 W/m2 SCT
09:59 44.1 °F 39.9 °F 30.03 in Calm     85% 0.00 in 302.0 W/m2 SCT
10:09 45.3 °F 40.1 °F 30.03 in Calm     82% 0.00 in 295.0 W/m2 FEW
10:14 45.7 °F 40.2 °F 30.03 in Calm     81% 0.00 in 218.0 W/m2 SCT
10:19 45.8 °F 40.3 °F 30.03 in Calm     81% 0.00 in 199.0 W/m2 BKN
10:24 45.9 °F 40.7 °F 30.03 in Calm     82% 0.00 in 204.0 W/m2 BKN
10:29 46.1 °F 40.6 °F 30.03 in Calm     81% 0.00 in 244.0 W/m2 SCT
10:34 46.1 °F 40.3 °F 30.03 in Calm     80% 0.00 in 253.0 W/m2 SCT
10:39 46.1 °F 39.9 °F 30.03 in Calm     79% 0.00 in 234.0 W/m2 SCT
10:44 46.2 °F 40.4 °F 30.03 in Calm     80% 0.00 in 220.0 W/m2 BKN
10:49 46.3 °F 40.5 °F 30.03 in Calm     80% 0.00 in 227.0 W/m2 BKN
10:55 46.5 °F 40.3 °F 30.03 in Calm     79% 0.00 in 206.0 W/m2 BKN
11:00 46.7 °F 40.2 °F 30.03 in Calm     78% 0.00 in 197.0 W/m2 BKN
11:05 46.7 °F 39.9 °F 30.03 in Calm     77% 0.00 in 174.0 W/m2 BKN
11:10 46.6 °F 39.8 °F 30.03 in Calm     77% 0.00 in 158.0 W/m2 BKN
11:15 46.5 °F 39.7 °F 30.03 in Calm     77% 0.00 in 155.0 W/m2 BKN
11:16 46.5 °F 39.7 °F 30.03 in SW 3.5 mph 3.5 mph 77% 0.00 in 155.0 W/m2 BKN
11:21 46.3 °F 40.1 °F 30.02 in NW 2.3 mph 2.3 mph 79% 0.00 in 144.0 W/m2 BKN
11:26 46.1 °F 40.3 °F 30.02 in NW 2.3 mph 2.3 mph 80% 0.00 in 139.0 W/m2 BKN
11:31 46.0 °F 40.2 °F 30.02 in NNW 2.3 mph 2.3 mph 80% 0.00 in 148.0 W/m2 BKN
11:36 46.0 °F 40.5 °F 30.02 in NNW 2.3 mph 2.3 mph 81% 0.00 in 153.0 W/m2 BKN
11:41 46.0 °F 40.5 °F 30.02 in Calm     81% 0.00 in 149.0 W/m2 BKN
11:46 45.9 °F 40.7 °F 30.02 in Calm     82% 0.00 in 149.0 W/m2 BKN
11:51 45.9 °F 40.7 °F 30.02 in Calm     82% 0.00 in 142.0 W/m2 BKN
11:57 45.9 °F 40.7 °F 30.02 in Calm     82% 0.00 in 134.0 W/m2 BKN
12:02 45.8 °F 40.9 °F 30.02 in Calm     83% 0.00 in 149.0 W/m2 BKN
12:07 45.8 °F 41.2 °F 30.02 in NW 2.3 mph 2.3 mph 84% 0.00 in 174.0 W/m2 BKN
12:12 45.8 °F 41.2 °F 30.01 in WNW 5.0 mph 5.0 mph 84% 0.00 in 197.0 W/m2 BKN
12:17 45.6 °F 41.0 °F 30.01 in NW 3.5 mph 3.5 mph 84% 0.00 in 193.0 W/m2 BKN
12:22 45.8 °F 41.2 °F 30.01 in NW 3.5 mph 3.5 mph 84% 0.00 in 199.0 W/m2 BKN
12:27 45.8 °F 41.2 °F 30.01 in Calm     84% 0.00 in 214.0 W/m2 BKN
12:32 45.8 °F 41.2 °F 30.01 in Calm     84% 0.00 in 221.0 W/m2 BKN
12:37 45.5 °F 40.9 °F 30.01 in Calm     84% 0.00 in 216.0 W/m2 BKN
12:43 45.6 °F 41.0 °F 30.01 in WNW 5.0 mph 5.0 mph 84% 0.00 in 207.0 W/m2 BKN
12:48 45.6 °F 41.0 °F 30.01 in Calm     84% 0.00 in 213.0 W/m2 BKN
12:53 45.5 °F 40.9 °F 30.00 in Calm     84% 0.00 in 213.0 W/m2 BKN
12:58 45.6 °F 41.0 °F 30.00 in Calm     84% 0.00 in 207.0 W/m2 BKN
13:03 45.8 °F 41.2 °F 30.00 in Calm     84% 0.00 in 197.0 W/m2 BKN
13:08 45.8 °F 40.9 °F 30.00 in WNW 4.6 mph 4.6 mph 83% 0.00 in 195.0 W/m2 BKN
13:13 45.8 °F 40.9 °F 30.00 in WNW 1.2 mph   83% 0.00 in 178.0 W/m2 BKN
13:18 46.0 °F 41.4 °F 30.00 in Calm     84% 0.00 in 151.0 W/m2 BKN
13:23 46.0 °F 41.1 °F 29.99 in Calm     83% 0.00 in 149.0 W/m2 BKN
13:28 45.9 °F 41.0 °F 29.99 in Calm     83% 0.00 in 148.0 W/m2 BKN
13:29 45.9 °F 41.0 °F 29.99 in Calm     83% 0.00 in 148.0 W/m2 BKN
13:34 45.9 °F 41.0 °F 29.99 in Calm     83% 0.00 in 153.0 W/m2 BKN
13:39 45.9 °F 41.0 °F 29.99 in Calm     83% 0.00 in 142.0 W/m2 BKN
13:44 45.9 °F 41.0 °F 29.98 in Calm     83% 0.00 in 139.0 W/m2 BKN
13:49 46.0 °F 41.1 °F 29.98 in Calm     83% 0.00 in 171.0 W/m2 OVC
13:54 46.0 °F 41.1 °F 29.98 in Calm     83% 0.00 in 216.0 W/m2 OVC
13:59 46.1 °F 41.2 °F 29.98 in Calm     83% 0.00 in 243.0 W/m2 BKN
14:04 46.3 °F 41.7 °F 29.98 in WNW 3.0 mph 6.0 mph 84% 0.00 in 276.0 W/m2 BKN
14:09 46.3 °F 41.4 °F 29.97 in Calm   7.0 mph 83% 0.00 in 279.0 W/m2 BKN
14:14 46.4 °F 41.8 °F 29.97 in Calm     84% 0.00 in 396.0 W/m2 SCT
14:19 46.7 °F 41.8 °F 29.97 in Calm     83% 0.00 in 686.0 W/m2 CLR
14:24 47.3 °F 42.4 °F 29.97 in WNW 1.0 mph 5.0 mph 83% 0.00 in 473.0 W/m2 FEW
14:29 48.0 °F 43.1 °F 29.96 in West 1.0 mph 7.0 mph 83% 0.00 in 517.0 W/m2 FEW
14:34 48.1 °F 42.5 °F 29.96 in WNW 5.0 mph 10.0 mph 81% 0.00 in 290.0 W/m2 BKN
14:39 47.9 °F 42.3 °F 29.96 in NW 5.0 mph 6.0 mph 81% 0.00 in 248.0 W/m2 BKN
14:44 48.1 °F 42.2 °F 29.95 in NNW 3.0 mph 5.0 mph 80% 0.00 in 359.0 W/m2 SCT
14:49 48.7 °F 43.1 °F 29.95 in NW 10.0 mph 10.0 mph 81% 0.00 in 582.0 W/m2 CLR
14:54 49.2 °F 42.6 °F 29.95 in NW 2.0 mph 12.0 mph 78% 0.00 in 327.0 W/m2 SCT
14:59 49.8 °F 42.8 °F 29.94 in NW 3.0 mph 7.0 mph 77% 0.00 in 302.0 W/m2 BKN
15:04 50.4 °F 43.4 °F 29.94 in WNW 3.0 mph 10.0 mph 77% 0.00 in 250.0 W/m2 BKN
15:09 49.8 °F 43.2 °F 29.94 in WNW 8.0 mph 12.0 mph 78% 0.00 in 258.0 W/m2 BKN
15:14 49.7 °F 43.4 °F 29.93 in WNW 5.0 mph 12.0 mph 79% 0.00 in 221.0 W/m2 BKN
15:19 49.5 °F 43.2 °F 29.93 in WNW 5.0 mph 9.0 mph 79% 0.00 in 272.0 W/m2 BKN
15:24 49.5 °F 42.9 °F 29.93 in NW 1.0 mph 8.0 mph 78% 0.00 in 269.0 W/m2 BKN
15:29 50.1 °F 42.8 °F 29.92 in South 5.8 mph 5.8 mph 76% 0.00 in 251.0 W/m2 BKN
15:34 50.7 °F 44.1 °F 29.92 in Calm   7.0 mph 78% 0.00 in 202.0 W/m2 BKN
15:39 50.4 °F 43.4 °F 29.92 in WNW 7.0 mph 10.0 mph 77% 0.00 in 246.0 W/m2 BKN
15:44 49.7 °F 43.5 °F 29.92 in NW 3.0 mph 7.0 mph 79% 0.00 in 236.0 W/m2 BKN
15:49 49.4 °F 43.2 °F 29.92 in WNW 5.0 mph 9.0 mph 79% 0.00 in 176.0 W/m2 OVC
15:54 49.0 °F 42.8 °F 29.92 in WNW 5.0 mph 8.0 mph 79% 0.00 in 158.0 W/m2 OVC
15:59 48.6 °F 43.0 °F 29.92 in West 2.0 mph 7.0 mph 81% 0.00 in 153.0 W/m2 OVC
16:04 48.4 °F 42.8 °F 29.92 in West 3.0 mph 7.0 mph 81% 0.00 in 178.0 W/m2 BKN
16:09 48.2 °F 43.0 °F 29.92 in West 3.0 mph 7.0 mph 82% 0.00 in 204.0 W/m2 BKN
16:14 48.2 °F 42.6 °F 29.92 in WSW 5.0 mph 8.0 mph 81% 0.00 in 220.0 W/m2 BKN
16:19 47.6 °F 42.1 °F 29.92 in WNW 6.0 mph 12.0 mph 81% 0.00 in 211.0 W/m2 BKN
16:24 47.5 °F 42.3 °F 29.92 in West 3.0 mph 7.0 mph 82% 0.00 in 178.0 W/m2 BKN
16:29 47.4 °F 41.9 °F 29.91 in WNW 3.0 mph 9.0 mph 81% 0.00 in 104.0 W/m2 OVC
16:34 47.5 °F 42.3 °F 29.91 in NW 2.0 mph 4.0 mph 82% 0.00 in 86.0 W/m2 OVC
16:39 48.1 °F 41.6 °F 29.90 in SSW 3.5 mph 3.5 mph 78% 0.00 in 81.0 W/m2 BKN
16:44 49.0 °F 41.5 °F 29.90 in Calm   8.0 mph 75% 0.00 in 84.0 W/m2 OVC
16:49 50.2 °F 41.2 °F 29.90 in ESE 7.0 mph 10.0 mph 71% 0.00 in 72.0 W/m2 OVC
16:54 50.5 °F 42.1 °F 29.90 in WSW 3.0 mph 7.0 mph 73% 0.00 in 76.0 W/m2 OVC
16:59 50.2 °F 41.2 °F 29.89 in South 3.0 mph 15.0 mph 71% 0.00 in 88.0 W/m2 OVC
17:00 50.6 °F 40.8 °F 29.89 in ESE 15.0 mph 15.0 mph 69% 0.00 in 88.0 W/m2 BKN
17:05 51.9 °F 39.7 °F 29.89 in SE 12.0 mph 12.0 mph 63% 0.00 in 77.0 W/m2 BKN
17:10 52.3 °F 39.7 °F 29.89 in SSE 11.0 mph 11.0 mph 62% 0.00 in 135.0 W/m2 SCT
17:15 51.7 °F 41.9 °F 29.89 in Calm     69% 0.00 in 165.0 W/m2 SCT
17:20 51.2 °F 41.4 °F 29.89 in West 6.9 mph 6.9 mph 69% 0.00 in 148.0 W/m2 SCT
17:26 50.8 °F 39.8 °F 29.89 in SE 10.4 mph 10.4 mph 66% 0.00 in 113.0 W/m2 BKN
17:31 52.0 °F 39.4 °F 29.88 in SE 9.2 mph 9.2 mph 62% 0.00 in 88.0 W/m2 BKN
17:36 52.2 °F 40.0 °F 29.88 in East 8.1 mph 8.1 mph 63% 0.00 in 77.0 W/m2 BKN
17:41 51.7 °F 39.5 °F 29.88 in Calm     63% 0.00 in 65.0 W/m2 BKN
17:46 51.8 °F 40.8 °F 29.88 in SW 10.0 mph 10.0 mph 66% 0.00 in 65.0 W/m2 BKN
17:51 49.6 °F 40.9 °F 29.87 in WSW 9.2 mph 9.2 mph 72% 0.00 in 76.0 W/m2 BKN
17:56 48.3 °F 41.1 °F 29.87 in WNW 3.5 mph   76% 0.00 in 79.0 W/m2 BKN
18:01 47.8 °F 41.3 °F 29.87 in WNW 4.0 mph 4.0 mph 78% 0.00 in 54.0 W/m2 BKN
18:06 47.6 °F 41.4 °F 29.87 in NW 6.9 mph 6.9 mph 79% 0.00 in 37.0 W/m2 BKN
18:11 47.4 °F 41.5 °F 29.86 in West 2.3 mph   80% 0.00 in 33.0 W/m2 BKN
18:17 47.1 °F 41.2 °F 29.86 in West 3.5 mph 3.5 mph 80% 0.00 in 30.0 W/m2 BKN
18:22 46.9 °F 41.4 °F 29.86 in WNW 6.9 mph 6.9 mph 81% 0.00 in 28.0 W/m2 BKN
18:27 46.7 °F 41.5 °F 29.86 in West 3.5 mph 3.5 mph 82% 0.00 in 21.0 W/m2 BKN
18:32 46.5 °F 41.3 °F 29.86 in SSW 4.0 mph 4.0 mph 82% 0.00 in 18.0 W/m2 BKN
18:37 47.0 °F 40.8 °F 29.86 in South 5.8 mph 5.8 mph 79% 0.00 in 12.0 W/m2 BKN
18:42 47.7 °F 41.2 °F 29.85 in SE 6.0 mph 6.0 mph 78% 0.00 in 11.0 W/m2 BKN
18:47 48.6 °F 40.0 °F 29.85 in ESE 9.2 mph 9.2 mph 72% 0.00 in 7.0 W/m2 BKN
18:52 49.5 °F 39.0 °F 29.85 in SE 12.7 mph 12.7 mph 67% 0.00 in 11.0 W/m2 BKN
18:57 50.4 °F 38.7 °F 29.85 in ESE 13.8 mph 13.8 mph 64% 0.00 in 11.0 W/m2 BKN
19:02 50.6 °F 38.1 °F 29.84 in ESE 16.0 mph 16.0 mph 62% 0.00 in 18.0 W/m2 SCT
19:07 50.5 °F 38.4 °F 29.84 in SE 13.0 mph 13.0 mph 63% 0.00 in 16.0 W/m2 FEW
19:13 50.5 °F 38.4 °F 29.83 in ESE 11.5 mph 11.5 mph 63% 0.00 in 11.0 W/m2 CLR
19:18 50.4 °F 38.3 °F 29.83 in ESE 13.8 mph 13.8 mph 63% 0.00 in 7.0 W/m2 CLR
19:23 50.4 °F 38.3 °F 29.83 in ESE 15.0 mph 15.0 mph 63% 0.00 in 5.0 W/m2 CLR
19:28 50.5 °F 38.4 °F 29.83 in ESE 16.1 mph 16.1 mph 63% 0.00 in 0.0 W/m2 CLR
19:33 50.4 °F 38.7 °F 29.83 in ESE 16.0 mph 16.0 mph 64% 0.00 in 0.0 W/m2 CLR
19:38 50.2 °F 38.9 °F 29.82 in SSE 28.0 mph 28.0 mph 65% 0.00 in 0.0 W/m2 CLR
19:43 49.9 °F 39.0 °F 29.82 in SE 19.6 mph 19.6 mph 66% 0.00 in 0.0 W/m2 CLR
19:48 49.5 °F 39.0 °F 29.81 in East 20.7 mph 20.7 mph 67% 0.00 in 0.0 W/m2 CLR
19:53 49.3 °F 39.2 °F 29.82 in SE 20.7 mph 20.7 mph 68% 0.00 in 0.0 W/m2 CLR
19:58 49.3 °F 39.2 °F 29.82 in ESE 24.2 mph 24.2 mph 68% 0.00 in 0.0 W/m2 CLR
20:03 49.1 °F 39.4 °F 29.82 in ESE 18.0 mph 18.0 mph 69% 0.00 in 0.0 W/m2 CLR
20:08 49.2 °F 39.5 °F 29.82 in ESE 19.6 mph 19.6 mph 69% 0.00 in 0.0 W/m2 CLR
20:14 49.2 °F 39.5 °F 29.82 in ESE 23.0 mph 23.0 mph 69% 0.00 in 0.0 W/m2 CLR
20:19 49.2 °F 39.5 °F 29.82 in SE 24.2 mph 24.2 mph 69% 0.00 in 0.0 W/m2 CLR
20:24 49.0 °F 39.6 °F 29.82 in ESE 20.7 mph 20.7 mph 70% 0.00 in 0.0 W/m2 CLR
20:29 48.8 °F 39.8 °F 29.82 in ESE 24.2 mph 24.2 mph 71% 0.00 in 0.0 W/m2 CLR
20:34 48.6 °F 39.6 °F 29.82 in ESE 18.0 mph 18.0 mph 71% 0.00 in 0.0 W/m2 CLR
20:39 48.5 °F 39.5 °F 29.82 in SE 21.9 mph 21.9 mph 71% 0.00 in 0.0 W/m2 CLR
20:44 48.8 °F 39.8 °F 29.82 in ESE 20.0 mph 20.0 mph 71% 0.00 in 0.0 W/m2 CLR
20:49 48.7 °F 39.7 °F 29.83 in SE 18.4 mph 18.4 mph 71% 0.00 in 0.0 W/m2 CLR
20:54 48.6 °F 40.0 °F 29.82 in SE 21.9 mph 21.9 mph 72% 0.00 in 0.0 W/m2 CLR
20:59 48.5 °F 39.9 °F 29.83 in ESE 16.0 mph 22.0 mph 72% 0.00 in 0.0 W/m2 CLR
21:04 48.7 °F 39.7 °F 29.83 in ESE 17.0 mph 25.0 mph 71% 0.00 in 0.0 W/m2 CLR
21:09 48.6 °F 40.0 °F 29.82 in ESE 12.0 mph 23.0 mph 72% 0.00 in 0.0 W/m2 CLR
21:14 48.5 °F 39.9 °F 29.82 in ESE 16.0 mph 24.0 mph 72% 0.00 in 0.0 W/m2 CLR
21:19 48.5 °F 40.2 °F 29.82 in ESE 16.0 mph 23.0 mph 73% 0.00 in 0.0 W/m2 CLR
21:24 48.4 °F 40.1 °F 29.82 in ESE 16.0 mph 25.0 mph 73% 0.00 in 0.0 W/m2 CLR
21:29 48.4 °F 40.1 °F 29.82 in ESE 20.0 mph 27.0 mph 73% 0.00 in 0.0 W/m2 CLR
21:34 48.2 °F 40.3 °F 29.82 in ESE 18.0 mph 18.0 mph 74% 0.00 in 0.0 W/m2 CLR
21:39 48.1 °F 40.5 °F 29.82 in ESE 16.0 mph 21.0 mph 75% 0.00 in 0.0 W/m2 CLR
21:44 48.0 °F 40.5 °F 29.83 in ESE 17.0 mph 26.0 mph 75% 0.00 in 0.0 W/m2 CLR
21:49 47.9 °F 40.7 °F 29.82 in ESE 15.0 mph 20.0 mph 76% 0.00 in 0.0 W/m2 CLR
21:54 47.9 °F 40.4 °F 29.82 in ESE 18.0 mph 29.0 mph 75% 0.00 in 0.0 W/m2 CLR
21:59 47.9 °F 40.4 °F 29.82 in ESE 16.0 mph 27.0 mph 75% 0.00 in 0.0 W/m2 CLR
22:04 47.7 °F 40.5 °F 29.82 in ESE 18.0 mph 26.0 mph 76% 0.00 in 0.0 W/m2 CLR
22:09 47.4 °F 40.6 °F 29.82 in East 15.0 mph 22.0 mph 77% 0.00 in 0.0 W/m2 CLR
22:14 47.4 °F 40.6 °F 29.82 in ESE 17.0 mph 26.0 mph 77% 0.00 in 0.0 W/m2 CLR
22:19 47.4 °F 40.6 °F 29.82 in ESE 15.0 mph 23.0 mph 77% 0.00 in 0.0 W/m2 CLR
22:24 47.5 °F 40.3 °F 29.82 in East 15.0 mph 23.0 mph 76% 0.00 in 0.0 W/m2 CLR
22:29 47.6 °F 40.4 °F 29.82 in East 15.0 mph 25.0 mph 76% 0.00 in 0.0 W/m2 CLR
22:34 47.4 °F 40.2 °F 29.82 in East 15.0 mph 21.0 mph 76% 0.00 in 0.0 W/m2 CLR
22:39 47.3 °F 40.5 °F 29.81 in East 14.0 mph 20.0 mph 77% 0.00 in 0.0 W/m2 CLR
22:44 47.4 °F 40.2 °F 29.81 in East 15.0 mph 23.0 mph 76% 0.00 in 0.0 W/m2 CLR
22:49 47.3 °F 40.4 °F 29.81 in East 12.0 mph 20.0 mph 77% 0.00 in 0.0 W/m2 CLR
22:54 47.2 °F 40.4 °F 29.81 in East 16.1 mph 16.1 mph 77% 0.00 in 0.0 W/m2 CLR
22:59 47.0 °F 40.2 °F 29.80 in East 15.0 mph 20.0 mph 77% 0.00 in 0.0 W/m2 CLR
Donkey Whisperer Farm
Compliments of Weather Underground - 3.25 mb